sensor_id;sensor_type;location;lat;lon;timestamp;P1;durP1;ratioP1;P2;durP2;ratioP2
14554;SDS011;7364;50.870;4.722;2024-01-16T00:01:02;5.57;;;3.53;;
14554;SDS011;7364;50.870;4.722;2024-01-16T00:03:29;10.67;;;2.93;;
14554;SDS011;7364;50.870;4.722;2024-01-16T00:05:57;10.07;;;3.33;;
14554;SDS011;7364;50.870;4.722;2024-01-16T00:08:25;11.00;;;3.63;;
14554;SDS011;7364;50.870;4.722;2024-01-16T00:10:52;8.03;;;3.40;;
14554;SDS011;7364;50.870;4.722;2024-01-16T00:13:20;7.03;;;3.57;;
14554;SDS011;7364;50.870;4.722;2024-01-16T00:15:47;7.00;;;2.87;;
14554;SDS011;7364;50.870;4.722;2024-01-16T00:18:14;7.13;;;3.00;;
14554;SDS011;7364;50.870;4.722;2024-01-16T00:20:42;7.27;;;3.63;;
14554;SDS011;7364;50.870;4.722;2024-01-16T00:23:09;9.67;;;3.77;;
14554;SDS011;7364;50.870;4.722;2024-01-16T00:25:38;10.80;;;3.87;;
14554;SDS011;7364;50.870;4.722;2024-01-16T00:28:05;10.73;;;3.40;;
14554;SDS011;7364;50.870;4.722;2024-01-16T00:30:32;12.00;;;3.40;;
14554;SDS011;7364;50.870;4.722;2024-01-16T00:33:00;6.43;;;3.13;;
14554;SDS011;7364;50.870;4.722;2024-01-16T00:35:28;9.97;;;3.27;;
14554;SDS011;7364;50.870;4.722;2024-01-16T00:37:55;8.50;;;3.77;;
14554;SDS011;7364;50.870;4.722;2024-01-16T00:40:22;9.30;;;2.97;;
14554;SDS011;7364;50.870;4.722;2024-01-16T00:42:51;10.73;;;3.33;;
14554;SDS011;7364;50.870;4.722;2024-01-16T00:45:18;7.57;;;3.27;;
14554;SDS011;7364;50.870;4.722;2024-01-16T00:47:46;10.10;;;3.73;;
14554;SDS011;7364;50.870;4.722;2024-01-16T00:50:13;8.97;;;3.47;;
14554;SDS011;7364;50.870;4.722;2024-01-16T00:52:41;7.53;;;3.37;;
14554;SDS011;7364;50.870;4.722;2024-01-16T00:55:08;8.90;;;3.97;;
14554;SDS011;7364;50.870;4.722;2024-01-16T00:57:36;9.53;;;3.50;;
14554;SDS011;7364;50.870;4.722;2024-01-16T01:00:05;6.80;;;3.90;;
14554;SDS011;7364;50.870;4.722;2024-01-16T01:02:35;8.73;;;3.57;;
14554;SDS011;7364;50.870;4.722;2024-01-16T01:05:02;9.63;;;3.93;;
14554;SDS011;7364;50.870;4.722;2024-01-16T01:07:30;8.43;;;3.47;;
14554;SDS011;7364;50.870;4.722;2024-01-16T01:09:57;7.13;;;3.87;;
14554;SDS011;7364;50.870;4.722;2024-01-16T01:12:25;7.30;;;3.50;;
14554;SDS011;7364;50.870;4.722;2024-01-16T01:14:52;5.63;;;3.10;;
14554;SDS011;7364;50.870;4.722;2024-01-16T01:17:21;5.93;;;3.23;;
14554;SDS011;7364;50.870;4.722;2024-01-16T01:19:48;10.27;;;4.00;;
14554;SDS011;7364;50.870;4.722;2024-01-16T01:22:16;6.67;;;3.27;;
14554;SDS011;7364;50.870;4.722;2024-01-16T01:24:43;5.83;;;2.47;;
14554;SDS011;7364;50.870;4.722;2024-01-16T01:27:11;10.53;;;3.93;;
14554;SDS011;7364;50.870;4.722;2024-01-16T01:29:38;5.80;;;2.70;;
14554;SDS011;7364;50.870;4.722;2024-01-16T01:32:05;22.47;;;5.17;;
14554;SDS011;7364;50.870;4.722;2024-01-16T01:34:34;7.83;;;3.10;;
14554;SDS011;7364;50.870;4.722;2024-01-16T01:37:01;8.07;;;3.50;;
14554;SDS011;7364;50.870;4.722;2024-01-16T01:39:28;10.87;;;3.60;;
14554;SDS011;7364;50.870;4.722;2024-01-16T01:41:56;8.73;;;3.70;;
14554;SDS011;7364;50.870;4.722;2024-01-16T01:44:23;6.70;;;2.90;;
14554;SDS011;7364;50.870;4.722;2024-01-16T01:46:50;6.30;;;2.93;;
14554;SDS011;7364;50.870;4.722;2024-01-16T01:49:21;6.53;;;3.17;;
14554;SDS011;7364;50.870;4.722;2024-01-16T01:51:52;5.80;;;2.90;;
14554;SDS011;7364;50.870;4.722;2024-01-16T01:54:20;7.70;;;3.83;;
14554;SDS011;7364;50.870;4.722;2024-01-16T01:56:48;6.70;;;2.83;;
14554;SDS011;7364;50.870;4.722;2024-01-16T01:59:17;6.17;;;3.23;;
14554;SDS011;7364;50.870;4.722;2024-01-16T02:01:45;6.47;;;3.00;;
14554;SDS011;7364;50.870;4.722;2024-01-16T02:04:13;8.07;;;3.30;;
14554;SDS011;7364;50.870;4.722;2024-01-16T02:06:43;6.63;;;3.23;;
14554;SDS011;7364;50.870;4.722;2024-01-16T02:09:12;6.10;;;3.00;;
14554;SDS011;7364;50.870;4.722;2024-01-16T02:11:39;7.13;;;3.10;;
14554;SDS011;7364;50.870;4.722;2024-01-16T02:14:07;5.57;;;3.13;;
14554;SDS011;7364;50.870;4.722;2024-01-16T02:16:35;7.77;;;2.97;;
14554;SDS011;7364;50.870;4.722;2024-01-16T02:19:04;5.80;;;3.00;;
14554;SDS011;7364;50.870;4.722;2024-01-16T02:21:35;8.57;;;3.87;;
14554;SDS011;7364;50.870;4.722;2024-01-16T02:24:07;6.87;;;3.60;;
14554;SDS011;7364;50.870;4.722;2024-01-16T02:26:36;9.97;;;3.83;;
14554;SDS011;7364;50.870;4.722;2024-01-16T02:29:03;9.33;;;3.40;;
14554;SDS011;7364;50.870;4.722;2024-01-16T02:31:31;7.67;;;3.20;;
14554;SDS011;7364;50.870;4.722;2024-01-16T02:33:58;11.27;;;3.63;;
14554;SDS011;7364;50.870;4.722;2024-01-16T02:36:26;9.07;;;3.70;;
14554;SDS011;7364;50.870;4.722;2024-01-16T02:38:54;8.33;;;2.77;;
14554;SDS011;7364;50.870;4.722;2024-01-16T02:41:23;7.00;;;3.40;;
14554;SDS011;7364;50.870;4.722;2024-01-16T02:43:51;8.67;;;3.17;;
14554;SDS011;7364;50.870;4.722;2024-01-16T02:46:18;5.67;;;2.80;;
14554;SDS011;7364;50.870;4.722;2024-01-16T02:48:45;6.90;;;3.10;;
14554;SDS011;7364;50.870;4.722;2024-01-16T02:51:12;8.33;;;3.30;;
14554;SDS011;7364;50.870;4.722;2024-01-16T02:53:41;7.03;;;3.43;;
14554;SDS011;7364;50.870;4.722;2024-01-16T02:56:08;7.70;;;3.37;;
14554;SDS011;7364;50.870;4.722;2024-01-16T02:58:37;4.37;;;2.87;;
14554;SDS011;7364;50.870;4.722;2024-01-16T03:01:04;6.37;;;2.83;;
14554;SDS011;7364;50.870;4.722;2024-01-16T03:03:32;5.27;;;2.67;;
14554;SDS011;7364;50.870;4.722;2024-01-16T03:06:00;7.43;;;3.03;;
14554;SDS011;7364;50.870;4.722;2024-01-16T03:08:27;11.60;;;3.63;;
14554;SDS011;7364;50.870;4.722;2024-01-16T03:10:54;6.20;;;3.70;;
14554;SDS011;7364;50.870;4.722;2024-01-16T03:13:22;11.77;;;3.40;;
14554;SDS011;7364;50.870;4.722;2024-01-16T03:15:50;6.30;;;2.87;;
14554;SDS011;7364;50.870;4.722;2024-01-16T03:18:18;7.27;;;2.93;;
14554;SDS011;7364;50.870;4.722;2024-01-16T03:20:45;12.53;;;3.73;;
14554;SDS011;7364;50.870;4.722;2024-01-16T03:23:12;7.93;;;3.30;;
14554;SDS011;7364;50.870;4.722;2024-01-16T03:25:40;5.83;;;2.97;;
14554;SDS011;7364;50.870;4.722;2024-01-16T03:28:08;6.47;;;3.60;;
14554;SDS011;7364;50.870;4.722;2024-01-16T03:30:35;7.43;;;3.17;;
14554;SDS011;7364;50.870;4.722;2024-01-16T03:33:04;7.00;;;3.47;;
14554;SDS011;7364;50.870;4.722;2024-01-16T03:35:32;11.53;;;3.23;;
14554;SDS011;7364;50.870;4.722;2024-01-16T03:37:59;6.43;;;3.10;;
14554;SDS011;7364;50.870;4.722;2024-01-16T03:40:26;6.30;;;2.97;;
14554;SDS011;7364;50.870;4.722;2024-01-16T03:42:59;7.17;;;3.70;;
14554;SDS011;7364;50.870;4.722;2024-01-16T03:45:26;9.33;;;3.67;;
14554;SDS011;7364;50.870;4.722;2024-01-16T03:47:56;4.57;;;2.70;;
14554;SDS011;7364;50.870;4.722;2024-01-16T03:50:24;11.90;;;3.83;;
14554;SDS011;7364;50.870;4.722;2024-01-16T03:52:51;9.60;;;3.40;;
14554;SDS011;7364;50.870;4.722;2024-01-16T03:55:19;6.53;;;3.40;;
14554;SDS011;7364;50.870;4.722;2024-01-16T03:57:46;8.37;;;3.90;;
14554;SDS011;7364;50.870;4.722;2024-01-16T04:00:13;7.97;;;3.60;;
14554;SDS011;7364;50.870;4.722;2024-01-16T04:02:41;7.20;;;3.43;;
14554;SDS011;7364;50.870;4.722;2024-01-16T04:05:09;9.10;;;4.40;;
14554;SDS011;7364;50.870;4.722;2024-01-16T04:07:37;7.30;;;3.40;;
14554;SDS011;7364;50.870;4.722;2024-01-16T04:10:05;4.77;;;3.20;;
14554;SDS011;7364;50.870;4.722;2024-01-16T04:12:33;4.60;;;3.13;;
14554;SDS011;7364;50.870;4.722;2024-01-16T04:15:01;12.63;;;4.03;;
14554;SDS011;7364;50.870;4.722;2024-01-16T04:17:28;8.20;;;3.27;;
14554;SDS011;7364;50.870;4.722;2024-01-16T04:19:56;9.13;;;3.63;;
14554;SDS011;7364;50.870;4.722;2024-01-16T04:22:23;7.53;;;3.27;;
14554;SDS011;7364;50.870;4.722;2024-01-16T04:24:52;7.57;;;3.40;;
14554;SDS011;7364;50.870;4.722;2024-01-16T04:27:19;8.93;;;3.53;;
14554;SDS011;7364;50.870;4.722;2024-01-16T04:29:47;8.67;;;3.13;;
14554;SDS011;7364;50.870;4.722;2024-01-16T04:32:14;7.07;;;3.63;;
14554;SDS011;7364;50.870;4.722;2024-01-16T04:34:41;8.50;;;3.23;;
14554;SDS011;7364;50.870;4.722;2024-01-16T04:37:09;6.93;;;3.87;;
14554;SDS011;7364;50.870;4.722;2024-01-16T04:39:36;8.87;;;3.17;;
14554;SDS011;7364;50.870;4.722;2024-01-16T04:42:06;5.80;;;3.67;;
14554;SDS011;7364;50.870;4.722;2024-01-16T04:44:33;7.50;;;4.00;;
14554;SDS011;7364;50.870;4.722;2024-01-16T04:47:00;7.63;;;3.80;;
14554;SDS011;7364;50.870;4.722;2024-01-16T04:49:28;8.23;;;3.43;;
14554;SDS011;7364;50.870;4.722;2024-01-16T04:51:55;7.50;;;3.50;;
14554;SDS011;7364;50.870;4.722;2024-01-16T04:54:22;7.17;;;3.63;;
14554;SDS011;7364;50.870;4.722;2024-01-16T04:56:50;9.57;;;4.17;;
14554;SDS011;7364;50.870;4.722;2024-01-16T04:59:18;11.23;;;4.20;;
14554;SDS011;7364;50.870;4.722;2024-01-16T05:01:46;7.03;;;3.63;;
14554;SDS011;7364;50.870;4.722;2024-01-16T05:04:13;6.77;;;3.87;;
14554;SDS011;7364;50.870;4.722;2024-01-16T05:06:40;10.43;;;4.07;;
14554;SDS011;7364;50.870;4.722;2024-01-16T05:09:07;11.67;;;4.47;;
14554;SDS011;7364;50.870;4.722;2024-01-16T05:11:35;10.87;;;5.10;;
14554;SDS011;7364;50.870;4.722;2024-01-16T05:14:03;9.37;;;4.30;;
14554;SDS011;7364;50.870;4.722;2024-01-16T05:16:31;7.87;;;4.30;;
14554;SDS011;7364;50.870;4.722;2024-01-16T05:18:59;10.23;;;4.73;;
14554;SDS011;7364;50.870;4.722;2024-01-16T05:21:26;6.97;;;4.70;;
14554;SDS011;7364;50.870;4.722;2024-01-16T05:23:53;7.03;;;3.97;;
14554;SDS011;7364;50.870;4.722;2024-01-16T05:26:21;15.23;;;4.77;;
14554;SDS011;7364;50.870;4.722;2024-01-16T05:28:48;6.20;;;3.83;;
14554;SDS011;7364;50.870;4.722;2024-01-16T05:31:16;11.83;;;5.83;;
14554;SDS011;7364;50.870;4.722;2024-01-16T05:33:46;8.10;;;5.00;;
14554;SDS011;7364;50.870;4.722;2024-01-16T05:36:13;11.87;;;4.17;;
14554;SDS011;7364;50.870;4.722;2024-01-16T05:38:41;8.80;;;4.60;;
14554;SDS011;7364;50.870;4.722;2024-01-16T05:41:09;12.13;;;4.73;;
14554;SDS011;7364;50.870;4.722;2024-01-16T05:43:36;9.77;;;5.17;;
14554;SDS011;7364;50.870;4.722;2024-01-16T05:46:03;14.17;;;5.20;;
14554;SDS011;7364;50.870;4.722;2024-01-16T05:48:31;7.67;;;4.23;;
14554;SDS011;7364;50.870;4.722;2024-01-16T05:50:59;8.43;;;4.20;;
14554;SDS011;7364;50.870;4.722;2024-01-16T05:53:27;16.27;;;5.73;;
14554;SDS011;7364;50.870;4.722;2024-01-16T05:55:54;8.97;;;4.90;;
14554;SDS011;7364;50.870;4.722;2024-01-16T05:58:21;7.07;;;4.57;;
14554;SDS011;7364;50.870;4.722;2024-01-16T06:00:49;10.57;;;5.27;;
14554;SDS011;7364;50.870;4.722;2024-01-16T06:03:16;9.67;;;5.17;;
14554;SDS011;7364;50.870;4.722;2024-01-16T06:05:43;14.53;;;6.10;;
14554;SDS011;7364;50.870;4.722;2024-01-16T06:08:12;8.97;;;4.77;;
14554;SDS011;7364;50.870;4.722;2024-01-16T06:10:39;11.50;;;5.20;;
14554;SDS011;7364;50.870;4.722;2024-01-16T06:13:06;9.80;;;5.17;;
14554;SDS011;7364;50.870;4.722;2024-01-16T06:15:34;10.27;;;5.03;;
14554;SDS011;7364;50.870;4.722;2024-01-16T06:18:01;8.07;;;5.33;;
14554;SDS011;7364;50.870;4.722;2024-01-16T06:20:28;10.23;;;5.33;;
14554;SDS011;7364;50.870;4.722;2024-01-16T06:22:56;8.87;;;4.63;;
14554;SDS011;7364;50.870;4.722;2024-01-16T06:25:24;11.73;;;5.33;;
14554;SDS011;7364;50.870;4.722;2024-01-16T06:27:52;9.53;;;5.43;;
14554;SDS011;7364;50.870;4.722;2024-01-16T06:30:19;10.67;;;4.87;;
14554;SDS011;7364;50.870;4.722;2024-01-16T06:32:46;11.67;;;4.90;;
14554;SDS011;7364;50.870;4.722;2024-01-16T06:35:15;9.80;;;4.50;;
14554;SDS011;7364;50.870;4.722;2024-01-16T06:37:42;9.87;;;4.63;;
14554;SDS011;7364;50.870;4.722;2024-01-16T06:40:10;12.93;;;5.37;;
14554;SDS011;7364;50.870;4.722;2024-01-16T06:42:39;15.63;;;5.80;;
14554;SDS011;7364;50.870;4.722;2024-01-16T06:45:06;10.97;;;4.90;;
14554;SDS011;7364;50.870;4.722;2024-01-16T06:47:34;9.40;;;5.17;;
14554;SDS011;7364;50.870;4.722;2024-01-16T06:50:01;10.40;;;4.73;;
14554;SDS011;7364;50.870;4.722;2024-01-16T06:52:28;14.67;;;5.30;;
14554;SDS011;7364;50.870;4.722;2024-01-16T06:54:56;10.17;;;4.53;;
14554;SDS011;7364;50.870;4.722;2024-01-16T06:57:23;11.07;;;5.20;;
14554;SDS011;7364;50.870;4.722;2024-01-16T06:59:51;8.87;;;4.37;;
14554;SDS011;7364;50.870;4.722;2024-01-16T07:02:19;15.20;;;6.00;;
14554;SDS011;7364;50.870;4.722;2024-01-16T07:04:47;6.93;;;4.33;;
14554;SDS011;7364;50.870;4.722;2024-01-16T07:07:14;8.50;;;4.73;;
14554;SDS011;7364;50.870;4.722;2024-01-16T07:09:41;7.83;;;5.43;;
14554;SDS011;7364;50.870;4.722;2024-01-16T07:12:09;8.57;;;5.13;;
14554;SDS011;7364;50.870;4.722;2024-01-16T07:14:36;10.60;;;4.67;;
14554;SDS011;7364;50.870;4.722;2024-01-16T07:17:06;16.03;;;5.07;;
14554;SDS011;7364;50.870;4.722;2024-01-16T07:19:33;10.67;;;4.47;;
14554;SDS011;7364;50.870;4.722;2024-01-16T07:22:01;10.33;;;5.00;;
14554;SDS011;7364;50.870;4.722;2024-01-16T07:24:28;13.27;;;4.93;;
14554;SDS011;7364;50.870;4.722;2024-01-16T07:26:55;5.93;;;3.93;;
14554;SDS011;7364;50.870;4.722;2024-01-16T07:29:23;11.10;;;4.90;;
14554;SDS011;7364;50.870;4.722;2024-01-16T07:31:51;10.67;;;4.80;;
14554;SDS011;7364;50.870;4.722;2024-01-16T07:34:20;12.83;;;5.07;;
14554;SDS011;7364;50.870;4.722;2024-01-16T07:36:47;9.03;;;4.33;;
14554;SDS011;7364;50.870;4.722;2024-01-16T07:39:14;6.57;;;4.53;;
14554;SDS011;7364;50.870;4.722;2024-01-16T07:41:41;14.03;;;5.40;;
14554;SDS011;7364;50.870;4.722;2024-01-16T07:44:08;10.60;;;5.37;;
14554;SDS011;7364;50.870;4.722;2024-01-16T07:46:36;9.03;;;5.63;;
14554;SDS011;7364;50.870;4.722;2024-01-16T07:49:03;9.73;;;4.73;;
14554;SDS011;7364;50.870;4.722;2024-01-16T07:51:32;14.63;;;4.57;;
14554;SDS011;7364;50.870;4.722;2024-01-16T07:54:09;10.20;;;5.27;;
14554;SDS011;7364;50.870;4.722;2024-01-16T07:56:38;7.83;;;4.80;;
14554;SDS011;7364;50.870;4.722;2024-01-16T07:59:05;7.47;;;5.00;;
14554;SDS011;7364;50.870;4.722;2024-01-16T08:01:33;9.17;;;5.07;;
14554;SDS011;7364;50.870;4.722;2024-01-16T08:04:00;11.60;;;5.27;;
14554;SDS011;7364;50.870;4.722;2024-01-16T08:06:27;9.93;;;5.20;;
14554;SDS011;7364;50.870;4.722;2024-01-16T08:08:56;14.33;;;4.53;;
14554;SDS011;7364;50.870;4.722;2024-01-16T08:11:23;38.23;;;9.03;;
14554;SDS011;7364;50.870;4.722;2024-01-16T08:13:51;10.87;;;5.07;;
14554;SDS011;7364;50.870;4.722;2024-01-16T08:16:18;8.43;;;4.50;;
14554;SDS011;7364;50.870;4.722;2024-01-16T08:18:46;7.50;;;4.90;;
14554;SDS011;7364;50.870;4.722;2024-01-16T08:21:13;9.17;;;5.33;;
14554;SDS011;7364;50.870;4.722;2024-01-16T08:23:40;9.10;;;6.93;;
14554;SDS011;7364;50.870;4.722;2024-01-16T08:26:09;9.07;;;4.47;;
14554;SDS011;7364;50.870;4.722;2024-01-16T08:28:37;7.63;;;4.40;;
14554;SDS011;7364;50.870;4.722;2024-01-16T08:31:04;10.57;;;4.87;;
14554;SDS011;7364;50.870;4.722;2024-01-16T08:33:31;10.67;;;4.67;;
14554;SDS011;7364;50.870;4.722;2024-01-16T08:35:59;10.17;;;4.93;;
14554;SDS011;7364;50.870;4.722;2024-01-16T08:38:26;9.63;;;4.97;;
14554;SDS011;7364;50.870;4.722;2024-01-16T08:40:54;7.40;;;4.23;;
14554;SDS011;7364;50.870;4.722;2024-01-16T08:43:23;12.57;;;5.00;;
14554;SDS011;7364;50.870;4.722;2024-01-16T08:45:50;7.53;;;4.47;;
14554;SDS011;7364;50.870;4.722;2024-01-16T08:48:17;11.93;;;4.77;;
14554;SDS011;7364;50.870;4.722;2024-01-16T08:50:44;9.67;;;4.17;;
14554;SDS011;7364;50.870;4.722;2024-01-16T08:53:12;13.43;;;4.63;;
14554;SDS011;7364;50.870;4.722;2024-01-16T08:55:39;11.50;;;4.87;;
14554;SDS011;7364;50.870;4.722;2024-01-16T08:58:06;8.70;;;4.70;;
14554;SDS011;7364;50.870;4.722;2024-01-16T09:00:35;12.97;;;4.57;;
14554;SDS011;7364;50.870;4.722;2024-01-16T09:03:03;10.07;;;4.50;;
14554;SDS011;7364;50.870;4.722;2024-01-16T09:05:30;10.07;;;4.80;;
14554;SDS011;7364;50.870;4.722;2024-01-16T09:08:00;6.83;;;4.50;;
14554;SDS011;7364;50.870;4.722;2024-01-16T09:10:27;9.57;;;4.40;;
14554;SDS011;7364;50.870;4.722;2024-01-16T09:12:58;10.00;;;5.10;;
14554;SDS011;7364;50.870;4.722;2024-01-16T09:15:25;7.60;;;4.53;;
14554;SDS011;7364;50.870;4.722;2024-01-16T09:17:54;9.63;;;4.73;;
14554;SDS011;7364;50.870;4.722;2024-01-16T09:20:21;7.73;;;4.67;;
14554;SDS011;7364;50.870;4.722;2024-01-16T09:22:49;8.97;;;4.73;;
14554;SDS011;7364;50.870;4.722;2024-01-16T09:25:16;9.67;;;4.07;;
14554;SDS011;7364;50.870;4.722;2024-01-16T09:27:43;6.77;;;4.10;;
14554;SDS011;7364;50.870;4.722;2024-01-16T09:30:11;11.03;;;4.40;;
14554;SDS011;7364;50.870;4.722;2024-01-16T09:32:38;8.43;;;4.03;;
14554;SDS011;7364;50.870;4.722;2024-01-16T09:35:07;7.27;;;3.83;;
14554;SDS011;7364;50.870;4.722;2024-01-16T09:37:36;6.23;;;3.70;;
14554;SDS011;7364;50.870;4.722;2024-01-16T09:40:05;11.43;;;4.70;;
14554;SDS011;7364;50.870;4.722;2024-01-16T09:42:33;6.23;;;4.00;;
14554;SDS011;7364;50.870;4.722;2024-01-16T09:45:01;6.63;;;3.90;;
14554;SDS011;7364;50.870;4.722;2024-01-16T09:47:29;8.43;;;3.70;;
14554;SDS011;7364;50.870;4.722;2024-01-16T09:49:57;8.97;;;3.63;;
14554;SDS011;7364;50.870;4.722;2024-01-16T09:52:27;8.50;;;4.03;;
14554;SDS011;7364;50.870;4.722;2024-01-16T09:54:54;9.10;;;4.77;;
14554;SDS011;7364;50.870;4.722;2024-01-16T09:57:23;5.60;;;3.53;;
14554;SDS011;7364;50.870;4.722;2024-01-16T09:59:52;10.93;;;3.87;;
14554;SDS011;7364;50.870;4.722;2024-01-16T10:02:20;10.53;;;5.30;;
14554;SDS011;7364;50.870;4.722;2024-01-16T10:04:49;5.07;;;3.67;;
14554;SDS011;7364;50.870;4.722;2024-01-16T10:07:17;7.73;;;3.63;;
14554;SDS011;7364;50.870;4.722;2024-01-16T10:09:53;8.53;;;3.80;;
14554;SDS011;7364;50.870;4.722;2024-01-16T10:12:23;5.93;;;3.83;;
14554;SDS011;7364;50.870;4.722;2024-01-16T10:14:51;7.63;;;3.50;;
14554;SDS011;7364;50.870;4.722;2024-01-16T10:17:19;10.10;;;3.70;;
14554;SDS011;7364;50.870;4.722;2024-01-16T10:19:47;8.27;;;3.70;;
14554;SDS011;7364;50.870;4.722;2024-01-16T10:22:19;8.47;;;4.07;;
14554;SDS011;7364;50.870;4.722;2024-01-16T10:24:47;11.57;;;4.20;;
14554;SDS011;7364;50.870;4.722;2024-01-16T10:27:16;6.43;;;3.90;;
14554;SDS011;7364;50.870;4.722;2024-01-16T10:29:54;6.60;;;4.20;;
14554;SDS011;7364;50.870;4.722;2024-01-16T10:32:29;6.47;;;4.07;;
14554;SDS011;7364;50.870;4.722;2024-01-16T10:35:06;12.70;;;4.63;;
14554;SDS011;7364;50.870;4.722;2024-01-16T10:37:42;6.43;;;3.90;;
14554;SDS011;7364;50.870;4.722;2024-01-16T10:40:16;7.50;;;3.73;;
14554;SDS011;7364;50.870;4.722;2024-01-16T10:42:45;14.73;;;4.17;;
14554;SDS011;7364;50.870;4.722;2024-01-16T10:45:17;6.27;;;3.87;;
14554;SDS011;7364;50.870;4.722;2024-01-16T10:47:45;6.80;;;4.10;;
14554;SDS011;7364;50.870;4.722;2024-01-16T10:50:13;5.90;;;3.23;;
14554;SDS011;7364;50.870;4.722;2024-01-16T10:52:42;8.97;;;3.40;;
14554;SDS011;7364;50.870;4.722;2024-01-16T10:55:15;4.57;;;3.57;;
14554;SDS011;7364;50.870;4.722;2024-01-16T10:57:47;5.90;;;3.87;;
14554;SDS011;7364;50.870;4.722;2024-01-16T11:00:15;7.23;;;4.00;;
14554;SDS011;7364;50.870;4.722;2024-01-16T11:02:48;5.67;;;3.77;;
14554;SDS011;7364;50.870;4.722;2024-01-16T11:05:18;7.60;;;3.50;;
14554;SDS011;7364;50.870;4.722;2024-01-16T11:07:46;5.23;;;3.53;;
14554;SDS011;7364;50.870;4.722;2024-01-16T11:10:16;8.43;;;3.67;;
14554;SDS011;7364;50.870;4.722;2024-01-16T11:12:44;9.10;;;3.23;;
14554;SDS011;7364;50.870;4.722;2024-01-16T11:15:14;6.03;;;3.77;;
14554;SDS011;7364;50.870;4.722;2024-01-16T11:17:43;7.00;;;3.50;;
14554;SDS011;7364;50.870;4.722;2024-01-16T11:20:11;8.07;;;3.47;;
14554;SDS011;7364;50.870;4.722;2024-01-16T11:22:41;4.53;;;2.97;;
14554;SDS011;7364;50.870;4.722;2024-01-16T11:25:10;8.30;;;3.10;;
14554;SDS011;7364;50.870;4.722;2024-01-16T11:27:38;8.10;;;3.20;;
14554;SDS011;7364;50.870;4.722;2024-01-16T11:30:07;4.87;;;2.90;;
14554;SDS011;7364;50.870;4.722;2024-01-16T11:32:38;7.37;;;3.17;;
14554;SDS011;7364;50.870;4.722;2024-01-16T11:35:07;6.83;;;2.50;;
14554;SDS011;7364;50.870;4.722;2024-01-16T11:37:35;3.97;;;2.50;;
14554;SDS011;7364;50.870;4.722;2024-01-16T11:46:01;8.00;;;3.03;;
14554;SDS011;7364;50.870;4.722;2024-01-16T11:48:31;3.60;;;2.23;;
14554;SDS011;7364;50.870;4.722;2024-01-16T11:50:58;9.20;;;2.63;;
14554;SDS011;7364;50.870;4.722;2024-01-16T11:53:32;6.97;;;3.03;;
14554;SDS011;7364;50.870;4.722;2024-01-16T11:56:15;4.57;;;2.67;;
14554;SDS011;7364;50.870;4.722;2024-01-16T11:59:02;8.80;;;2.77;;
14554;SDS011;7364;50.870;4.722;2024-01-16T12:01:47;4.70;;;2.60;;
14554;SDS011;7364;50.870;4.722;2024-01-16T12:04:20;7.40;;;3.07;;
14554;SDS011;7364;50.870;4.722;2024-01-16T12:06:56;5.27;;;2.53;;
14554;SDS011;7364;50.870;4.722;2024-01-16T12:09:25;5.13;;;2.40;;
14554;SDS011;7364;50.870;4.722;2024-01-16T12:11:55;5.37;;;2.47;;
14554;SDS011;7364;50.870;4.722;2024-01-16T12:14:24;5.60;;;2.67;;
14554;SDS011;7364;50.870;4.722;2024-01-16T12:16:51;4.10;;;2.10;;
14554;SDS011;7364;50.870;4.722;2024-01-16T12:19:18;5.50;;;2.37;;
14554;SDS011;7364;50.870;4.722;2024-01-16T12:21:47;4.33;;;2.77;;
14554;SDS011;7364;50.870;4.722;2024-01-16T12:24:15;4.80;;;2.73;;
14554;SDS011;7364;50.870;4.722;2024-01-16T12:26:44;7.87;;;2.33;;
14554;SDS011;7364;50.870;4.722;2024-01-16T12:29:11;7.50;;;2.77;;
14554;SDS011;7364;50.870;4.722;2024-01-16T12:31:38;7.80;;;2.47;;
14554;SDS011;7364;50.870;4.722;2024-01-16T12:34:06;3.33;;;2.43;;
14554;SDS011;7364;50.870;4.722;2024-01-16T12:36:33;8.07;;;2.40;;
14554;SDS011;7364;50.870;4.722;2024-01-16T12:39:02;7.53;;;2.53;;
14554;SDS011;7364;50.870;4.722;2024-01-16T12:41:41;7.77;;;2.33;;
14554;SDS011;7364;50.870;4.722;2024-01-16T12:44:11;7.23;;;2.43;;
14554;SDS011;7364;50.870;4.722;2024-01-16T12:46:39;4.07;;;2.33;;
14554;SDS011;7364;50.870;4.722;2024-01-16T12:49:07;4.13;;;1.90;;
14554;SDS011;7364;50.870;4.722;2024-01-16T12:51:36;6.70;;;2.70;;
14554;SDS011;7364;50.870;4.722;2024-01-16T12:54:12;9.57;;;2.60;;
14554;SDS011;7364;50.870;4.722;2024-01-16T12:56:40;6.17;;;2.00;;
14554;SDS011;7364;50.870;4.722;2024-01-16T12:59:10;5.67;;;2.77;;
14554;SDS011;7364;50.870;4.722;2024-01-16T13:01:39;6.40;;;2.70;;
14554;SDS011;7364;50.870;4.722;2024-01-16T13:04:09;4.27;;;2.13;;
14554;SDS011;7364;50.870;4.722;2024-01-16T13:06:36;5.37;;;2.43;;
14554;SDS011;7364;50.870;4.722;2024-01-16T13:09:05;5.60;;;2.60;;
14554;SDS011;7364;50.870;4.722;2024-01-16T13:11:46;5.30;;;2.87;;
14554;SDS011;7364;50.870;4.722;2024-01-16T13:14:14;6.50;;;2.43;;
14554;SDS011;7364;50.870;4.722;2024-01-16T13:16:41;4.03;;;2.83;;
14554;SDS011;7364;50.870;4.722;2024-01-16T13:19:08;6.33;;;2.60;;
14554;SDS011;7364;50.870;4.722;2024-01-16T13:21:36;6.70;;;2.80;;
14554;SDS011;7364;50.870;4.722;2024-01-16T13:24:03;9.00;;;2.67;;
14554;SDS011;7364;50.870;4.722;2024-01-16T13:26:31;7.33;;;3.50;;
14554;SDS011;7364;50.870;4.722;2024-01-16T13:29:00;3.53;;;2.27;;
14554;SDS011;7364;50.870;4.722;2024-01-16T13:31:27;5.03;;;2.43;;
14554;SDS011;7364;50.870;4.722;2024-01-16T13:33:54;6.20;;;2.40;;
14554;SDS011;7364;50.870;4.722;2024-01-16T13:36:22;6.03;;;2.63;;
14554;SDS011;7364;50.870;4.722;2024-01-16T13:38:50;6.20;;;2.77;;
14554;SDS011;7364;50.870;4.722;2024-01-16T13:41:17;11.53;;;3.00;;
14554;SDS011;7364;50.870;4.722;2024-01-16T13:43:44;8.80;;;2.93;;
14554;SDS011;7364;50.870;4.722;2024-01-16T13:46:13;5.70;;;3.20;;
14554;SDS011;7364;50.870;4.722;2024-01-16T13:48:42;5.10;;;2.67;;
14554;SDS011;7364;50.870;4.722;2024-01-16T13:51:09;4.90;;;2.20;;
14554;SDS011;7364;50.870;4.722;2024-01-16T13:53:37;4.93;;;2.67;;
14554;SDS011;7364;50.870;4.722;2024-01-16T13:56:04;6.57;;;2.63;;
14554;SDS011;7364;50.870;4.722;2024-01-16T13:58:31;7.17;;;3.20;;
14554;SDS011;7364;50.870;4.722;2024-01-16T14:01:01;6.20;;;2.93;;
14554;SDS011;7364;50.870;4.722;2024-01-16T14:03:31;5.53;;;3.20;;
14554;SDS011;7364;50.870;4.722;2024-01-16T14:05:59;6.10;;;2.43;;
14554;SDS011;7364;50.870;4.722;2024-01-16T14:08:26;6.13;;;2.60;;
14554;SDS011;7364;50.870;4.722;2024-01-16T14:10:53;3.50;;;2.10;;
14554;SDS011;7364;50.870;4.722;2024-01-16T14:13:21;5.03;;;2.40;;
14554;SDS011;7364;50.870;4.722;2024-01-16T14:15:50;4.03;;;2.20;;
14554;SDS011;7364;50.870;4.722;2024-01-16T14:18:17;6.17;;;2.77;;
14554;SDS011;7364;50.870;4.722;2024-01-16T14:20:46;4.87;;;2.70;;
14554;SDS011;7364;50.870;4.722;2024-01-16T14:23:13;6.17;;;2.47;;
14554;SDS011;7364;50.870;4.722;2024-01-16T14:25:40;11.20;;;2.77;;
14554;SDS011;7364;50.870;4.722;2024-01-16T14:28:07;8.33;;;2.83;;
14554;SDS011;7364;50.870;4.722;2024-01-16T14:30:36;5.47;;;2.93;;
14554;SDS011;7364;50.870;4.722;2024-01-16T14:33:03;5.90;;;2.83;;
14554;SDS011;7364;50.870;4.722;2024-01-16T14:35:31;4.37;;;2.00;;
14554;SDS011;7364;50.870;4.722;2024-01-16T14:38:00;11.70;;;2.37;;
14554;SDS011;7364;50.870;4.722;2024-01-16T14:40:28;9.57;;;3.03;;
14554;SDS011;7364;50.870;4.722;2024-01-16T14:42:55;4.20;;;2.73;;
14554;SDS011;7364;50.870;4.722;2024-01-16T14:45:23;4.87;;;3.03;;
14554;SDS011;7364;50.870;4.722;2024-01-16T14:47:52;5.07;;;2.23;;
14554;SDS011;7364;50.870;4.722;2024-01-16T14:50:19;5.70;;;2.70;;
14554;SDS011;7364;50.870;4.722;2024-01-16T14:52:47;8.63;;;3.13;;
14554;SDS011;7364;50.870;4.722;2024-01-16T14:55:16;9.80;;;3.20;;
14554;SDS011;7364;50.870;4.722;2024-01-16T14:57:45;4.63;;;2.33;;
14554;SDS011;7364;50.870;4.722;2024-01-16T15:00:18;7.23;;;3.27;;
14554;SDS011;7364;50.870;4.722;2024-01-16T15:02:48;5.13;;;2.70;;
14554;SDS011;7364;50.870;4.722;2024-01-16T15:05:15;6.40;;;2.60;;
14554;SDS011;7364;50.870;4.722;2024-01-16T15:07:44;7.50;;;2.43;;
14554;SDS011;7364;50.870;4.722;2024-01-16T15:10:12;5.70;;;2.50;;